Enka Village, North Carolina
Current Conditions -  °F | °C
As of 1:54 AM on Sunday 26 Oct 2014 (Local Time) from KAVL Reporting Station
Clear Clear  
Wind Chill: 54°   Ceiling: Unl
Heat Index: 54°   Visibility: 10mi
Dew Point: 47°   Wind: 5mph
Humidity: 77%   Direction: 10°N
Pressure: 30.03"   Gusts: NA
Location:  35.4572°N, 82.7746°W
Report Text: KAVL 260554Z AUTO 01004KT 10SM CLR 12/08 A3003 RMK AO2 SLP153 T01220083 10156 20100 55004
Loading
Personal Weather Stations






























Interactive Weather Map
Tropical Storm Tracking
New forecast layout! Learn more

10-Day Weather Forecast

Advertisements
Track Severe Weather on mobile